Time;durP1;ratioP1;P1;durP2;ratioP2;P2;SDS_P1;SDS_P2;PMS_P1;PMS_P2;Temp;Humidity;BMP_temperature;BMP_pressure;BME280_temperature;BME280_humidity;BME280_pressure;Samples;Min_cycle;Max_cycle;Signal;HPM_P1;HPM_P2
2022/09/29 06:58:21;;;;;;;9.45;5.18;;;22.60;99.90;;;;;;6223618;22;20335;-94
2022/09/29 07:00:48;;;;;;;9.48;5.40;;;22.50;99.90;;;;;;6217405;23;20044;-87
2022/09/29 07:03:15;;;;;;;13.48;5.50;;;22.40;99.90;;;;;;6214767;23;20009;-86
2022/09/29 07:05:42;;;;;;;10.80;5.18;;;22.40;99.90;;;;;;6215150;23;20030;-87
2022/09/29 07:08:09;;;;;;;18.85;5.03;;;22.40;99.90;;;;;;6184129;23;20035;-87
2022/09/29 07:10:36;;;;;;;8.02;5.32;;;22.40;99.90;;;;;;6191045;23;20040;-87
2022/09/29 07:13:02;;;;;;;9.68;5.85;;;22.50;99.90;;;;;;6188322;23;20020;-91
2022/09/29 07:15:31;;;;;;;8.75;5.95;;;22.70;99.90;;;;;;6189881;23;20467;-90
2022/09/29 07:18:00;;;;;;;13.43;5.75;;;22.90;99.90;;;;;;6191666;23;20020;-89
2022/09/29 07:20:28;;;;;;;6.60;5.80;;;23.10;99.90;;;;;;6189409;23;20036;-91
2022/09/29 07:22:55;;;;;;;7.07;6.38;;;23.40;99.90;;;;;;6190652;23;20013;-90
2022/09/29 07:25:21;;;;;;;11.00;6.97;;;23.50;99.90;;;;;;6199197;23;20465;-92
2022/09/29 07:27:50;;;;;;;9.15;7.05;;;23.80;99.90;;;;;;6219838;23;20016;-92
2022/09/29 07:30:26;;;;;;;15.80;7.40;;;23.90;99.90;;;;;;6220916;23;20009;-92
2022/09/29 07:32:56;;;;;;;11.95;7.45;;;24.00;99.90;;;;;;6220589;23;20009;-93
2022/09/29 07:35:23;;;;;;;7.35;6.63;;;24.20;99.90;;;;;;6221042;23;20053;-92
2022/09/29 07:37:54;;;;;;;7.72;6.90;;;24.20;99.90;;;;;;6199307;23;20084;-92
2022/09/29 07:40:24;;;;;;;8.40;7.60;;;24.20;99.90;;;;;;6216602;23;20012;-92
2022/09/29 07:42:59;;;;;;;11.30;7.60;;;24.30;99.90;;;;;;6217248;23;20008;-95
2022/09/29 07:45:26;;;;;;;8.30;6.78;;;24.30;99.90;;;;;;6218580;23;20009;-85
2022/09/29 07:47:52;;;;;;;9.02;6.05;;;24.40;99.90;;;;;;6193140;23;20040;-85
2022/09/29 07:50:19;;;;;;;11.25;5.57;;;24.40;99.90;;;;;;6216289;23;20008;-87
2022/09/29 07:52:49;;;;;;;9.63;5.28;;;24.60;99.90;;;;;;6191086;23;20392;-88
2022/09/29 07:55:16;;;;;;;8.88;5.72;;;24.80;99.90;;;;;;6215724;23;20094;-87
2022/09/29 07:57:42;;;;;;;9.82;6.00;;;24.90;99.90;;;;;;6190865;23;20000;-89
2022/09/29 08:00:10;;;;;;;14.75;6.88;;;25.10;99.90;;;;;;6216157;23;20018;-88
2022/09/29 08:02:38;;;;;;;7.40;6.72;;;25.30;99.90;;;;;;6215945;23;20001;-87
2022/09/29 08:05:05;;;;;;;7.90;7.18;;;25.40;99.90;;;;;;6209099;23;20013;-87
2022/09/29 08:07:32;;;;;;;8.30;6.97;;;25.50;99.90;;;;;;6188150;23;20020;-86
2022/09/29 08:09:58;;;;;;;7.88;7.00;;;25.60;99.90;;;;;;6213692;23;20081;-86
2022/09/29 08:12:26;;;;;;;13.52;7.93;;;25.50;99.90;;;;;;6188617;23;20013;-86
2022/09/29 08:14:52;;;;;;;8.25;7.25;;;25.50;99.90;;;;;;6213659;23;20008;-86
2022/09/29 08:17:18;;;;;;;10.15;6.97;;;25.40;99.90;;;;;;6188173;23;20501;-86
2022/09/29 08:19:44;;;;;;;8.25;7.40;;;25.50;99.90;;;;;;6213872;23;20111;-86
2022/09/29 08:22:11;;;;;;;8.25;7.47;;;25.40;99.90;;;;;;6188174;23;20008;-85
2022/09/29 08:24:39;;;;;;;9.70;7.45;;;25.20;99.90;;;;;;6213773;23;20012;-86
2022/09/29 08:27:05;;;;;;;8.00;7.20;;;25.20;99.90;;;;;;6193067;23;20342;-86
2022/09/29 08:29:32;;;;;;;10.20;6.90;;;25.10;99.90;;;;;;6192173;23;20433;-85
2022/09/29 08:31:59;;;;;;;9.45;6.63;;;25.10;99.90;;;;;;6192839;23;20438;-85
2022/09/29 08:34:25;;;;;;;11.27;6.63;;;25.10;99.90;;;;;;6217409;23;20036;-84
2022/09/29 08:36:52;;;;;;;7.25;6.40;;;25.10;99.90;;;;;;6218439;23;20005;-85
2022/09/29 08:39:21;;;;;;;7.75;6.80;;;25.30;99.90;;;;;;6218602;23;20445;-85
2022/09/29 08:42:01;;;;;;;8.85;6.97;;;25.40;99.90;;;;;;6193016;23;20521;-85
2022/09/29 08:44:37;;;;;;;21.13;12.38;;;25.40;99.90;;;;;;6190174;23;20047;-84
2022/09/29 08:47:28;;;;;;;32.45;17.83;;;25.40;99.90;;;;;;6217963;23;20016;-85
2022/09/29 08:50:04;;;;;;;19.65;11.82;;;25.40;99.90;;;;;;6195416;23;20020;-85
2022/09/29 08:52:34;;;;;;;10.57;7.53;;;25.30;99.90;;;;;;6196821;23;20012;-91
2022/09/29 12:43:11;;;;;;;13.25;12.50;;;27.10;99.90;;;;;;6240733;22;20028;-93
2022/09/29 12:52:37;;;;;;;14.45;13.55;;;27.20;99.90;;;;;;6228665;22;20031;-94
2022/09/29 14:05:25;;;;;;;13.65;12.88;;;26.60;99.90;;;;;;6258835;22;20031;-95
2022/09/29 14:07:56;;;;;;;14.00;13.00;;;26.60;99.90;;;;;;6196257;23;20023;-95
2022/09/29 14:10:40;;;;;;;13.60;12.65;;;26.50;99.90;;;;;;6198178;23;20031;-95
2022/09/29 14:13:20;;;;;;;14.00;12.93;;;26.30;99.90;;;;;;6217490;23;20074;-91
2022/09/29 14:16:10;;;;;;;14.35;13.18;;;26.10;99.90;;;;;;6195266;23;20004;-93
2022/09/29 14:18:46;;;;;;;13.10;12.30;;;26.00;99.90;;;;;;6195840;23;20019;-91
2022/09/29 14:21:54;;;;;;;14.30;13.00;;;25.90;99.90;;;;;;6227966;22;20082;-95
2022/09/29 14:25:00;;;;;;;13.25;12.52;;;25.90;99.90;;;;;;6197551;23;20442;-92
2022/09/29 14:37:24;;;;;;;12.50;11.73;;;25.80;99.90;;;;;;6250151;22;20020;-92
2022/09/29 14:43:02;;;;;;;13.57;12.30;;;25.80;99.90;;;;;;6226991;23;20000;-93
2022/09/29 14:52:16;;;;;;;12.00;11.10;;;25.50;99.90;;;;;;6222796;23;20039;-93
2022/09/29 14:55:04;;;;;;;11.63;10.80;;;25.30;99.90;;;;;;6197566;23;20135;-93
2022/09/29 14:57:34;;;;;;;11.60;10.80;;;25.20;99.90;;;;;;6197308;23;20008;-93
2022/09/29 15:00:15;;;;;;;11.27;10.57;;;25.20;99.90;;;;;;6197936;23;20004;-93
2022/09/29 15:02:54;;;;;;;11.65;10.80;;;25.20;99.90;;;;;;6199154;23;20315;-92
2022/09/29 15:05:39;;;;;;;10.65;9.80;;;25.20;99.90;;;;;;6222731;23;20422;-94
2022/09/29 15:08:52;;;;;;;10.75;10.02;;;25.10;99.90;;;;;;6200600;23;20077;-94
2022/09/29 15:11:25;;;;;;;10.13;9.52;;;25.20;99.90;;;;;;6141328;23;20024;-92
2022/09/29 15:14:13;;;;;;;10.75;9.93;;;25.10;99.90;;;;;;6222196;23;20082;-94
2022/09/29 15:19:51;;;;;;;10.75;9.85;;;25.00;99.90;;;;;;6240970;22;20024;-92
2022/09/29 15:22:40;;;;;;;10.55;9.73;;;24.90;99.90;;;;;;6197820;23;20012;-92
2022/09/29 15:25:52;;;;;;;9.65;9.15;;;24.80;99.90;;;;;;6199291;23;20015;-94
2022/09/29 15:35:24;;;;;;;9.80;9.20;;;24.50;99.90;;;;;;6099214;23;20460;-92
2022/09/29 15:38:19;;;;;;;9.32;8.90;;;24.50;99.90;;;;;;6097657;23;20007;-92
2022/09/29 15:40:56;;;;;;;10.48;9.50;;;24.50;99.90;;;;;;6088402;23;20014;-93
2022/09/29 15:43:40;;;;;;;9.77;9.13;;;24.40;99.90;;;;;;6072637;23;20018;-92
2022/09/29 15:46:37;;;;;;;11.05;9.43;;;24.30;99.90;;;;;;6097390;23;20042;-95
2022/09/29 15:49:20;;;;;;;9.23;8.73;;;24.20;99.90;;;;;;6097272;23;20018;-93
2022/09/29 15:51:55;;;;;;;9.82;8.93;;;24.20;99.90;;;;;;6097939;23;20021;-93
2022/09/29 15:54:27;;;;;;;9.20;8.60;;;24.00;99.90;;;;;;6073519;23;20020;-93
2022/09/29 15:59:41;;;;;;;11.77;8.35;;;23.90;99.90;;;;;;6097056;23;20089;-92
2022/09/29 16:02:35;;;;;;;8.75;7.85;;;23.90;99.90;;;;;;6073968;23;20011;-92
2022/09/29 16:05:14;;;;;;;8.48;7.57;;;23.80;99.90;;;;;;6097358;23;20010;-92
2022/09/29 16:08:02;;;;;;;8.35;7.20;;;23.70;99.90;;;;;;6163842;23;20070;-93
2022/09/29 16:10:41;;;;;;;6.18;5.78;;;23.70;99.90;;;;;;6196632;23;20004;-95
2022/09/29 16:13:18;;;;;;;7.55;6.13;;;23.60;99.90;;;;;;6196484;23;20008;-93
2022/09/29 16:15:49;;;;;;;6.57;5.20;;;23.60;99.90;;;;;;6197072;23;20083;-94
2022/09/29 16:18:23;;;;;;;11.18;6.00;;;23.50;99.90;;;;;;6196173;23;20027;-92
2022/09/29 16:20:52;;;;;;;5.55;5.07;;;23.50;99.90;;;;;;6225275;23;20040;-92
2022/09/29 16:23:34;;;;;;;8.48;5.00;;;23.40;99.90;;;;;;6194204;22;20020;-94
2022/09/29 16:26:43;;;;;;;8.00;5.10;;;23.30;99.90;;;;;;6201109;23;20520;-92
2022/09/29 16:29:11;;;;;;;12.90;4.72;;;23.20;99.90;;;;;;6098341;23;20045;-94
2022/09/29 16:31:42;;;;;;;7.07;4.40;;;23.20;99.90;;;;;;6049306;23;20026;-93
2022/09/29 16:34:24;;;;;;;7.75;4.00;;;23.10;99.90;;;;;;6076312;23;20130;-92
2022/09/29 16:37:09;;;;;;;10.38;4.57;;;23.00;99.90;;;;;;6053920;23;20017;-94
2022/09/29 16:40:06;;;;;;;7.35;4.15;;;22.90;99.90;;;;;;6077477;23;20021;-93
2022/09/29 16:43:22;;;;;;;4.75;3.70;;;22.90;99.90;;;;;;6093889;23;20357;-94
2022/09/29 16:46:06;;;;;;;8.55;4.70;;;22.80;99.90;;;;;;6073433;23;20006;-94
2022/09/29 16:48:40;;;;;;;7.13;4.00;;;22.80;99.90;;;;;;6075132;23;20010;-93
2022/09/29 16:52:16;;;;;;;;;;;;;;;;;;;;;
2022/09/29 16:55:57;;;;;;;11.60;4.15;;;22.70;99.90;;;;;;6100693;23;20123;-93
2022/09/29 17:52:18;;;;;;;9.77;3.38;;;21.90;99.90;;;;;;6217769;22;20372;-95
2022/09/29 22:22:25;;;;;;;;;;;;;;;;;;;;;
2022/09/29 22:44:11;;;;;;;;;;;;;;;;;;;;;
